sensor_id;sensor_type;location;lat;lon;timestamp;P1;durP1;ratioP1;P2;durP2;ratioP2
37164;SDS011;23057;48.554;14.454;2023-08-01T00:00:25;7.07;;;3.17;;
37164;SDS011;23057;48.554;14.454;2023-08-01T00:02:56;9.95;;;3.33;;
37164;SDS011;23057;48.554;14.454;2023-08-01T00:05:28;6.50;;;3.03;;
37164;SDS011;23057;48.554;14.454;2023-08-01T00:07:58;5.40;;;2.72;;
37164;SDS011;23057;48.554;14.454;2023-08-01T00:10:29;7.38;;;2.88;;
37164;SDS011;23057;48.554;14.454;2023-08-01T00:13:00;6.18;;;2.83;;
37164;SDS011;23057;48.554;14.454;2023-08-01T00:15:31;6.72;;;3.55;;
37164;SDS011;23057;48.554;14.454;2023-08-01T00:18:02;6.85;;;2.60;;
37164;SDS011;23057;48.554;14.454;2023-08-01T00:20:33;8.48;;;2.15;;
37164;SDS011;23057;48.554;14.454;2023-08-01T00:23:04;3.85;;;2.70;;
37164;SDS011;23057;48.554;14.454;2023-08-01T00:25:35;5.43;;;2.40;;
37164;SDS011;23057;48.554;14.454;2023-08-01T00:28:06;7.03;;;2.55;;
37164;SDS011;23057;48.554;14.454;2023-08-01T00:30:36;5.80;;;2.40;;
37164;SDS011;23057;48.554;14.454;2023-08-01T00:33:07;5.45;;;2.75;;
37164;SDS011;23057;48.554;14.454;2023-08-01T00:35:38;3.53;;;2.35;;
37164;SDS011;23057;48.554;14.454;2023-08-01T00:38:09;4.88;;;2.58;;
37164;SDS011;23057;48.554;14.454;2023-08-01T00:40:40;6.68;;;2.05;;
37164;SDS011;23057;48.554;14.454;2023-08-01T00:43:11;5.55;;;2.35;;
37164;SDS011;23057;48.554;14.454;2023-08-01T00:45:41;5.05;;;2.10;;
37164;SDS011;23057;48.554;14.454;2023-08-01T00:48:13;6.13;;;2.17;;
37164;SDS011;23057;48.554;14.454;2023-08-01T00:50:44;4.30;;;2.22;;
37164;SDS011;23057;48.554;14.454;2023-08-01T00:53:15;4.65;;;2.20;;
37164;SDS011;23057;48.554;14.454;2023-08-01T00:55:48;4.78;;;2.17;;
37164;SDS011;23057;48.554;14.454;2023-08-01T00:58:22;5.05;;;2.20;;
37164;SDS011;23057;48.554;14.454;2023-08-01T01:00:53;3.80;;;1.88;;
37164;SDS011;23057;48.554;14.454;2023-08-01T01:03:25;3.03;;;1.80;;
37164;SDS011;23057;48.554;14.454;2023-08-01T01:05:57;3.85;;;2.10;;
37164;SDS011;23057;48.554;14.454;2023-08-01T01:08:56;6.50;;;2.03;;
37164;SDS011;23057;48.554;14.454;2023-08-01T01:11:27;3.03;;;2.03;;
37164;SDS011;23057;48.554;14.454;2023-08-01T01:13:58;3.05;;;2.03;;
37164;SDS011;23057;48.554;14.454;2023-08-01T01:16:28;3.70;;;2.08;;
37164;SDS011;23057;48.554;14.454;2023-08-01T01:18:59;6.82;;;1.80;;
37164;SDS011;23057;48.554;14.454;2023-08-01T01:21:30;3.30;;;2.20;;
37164;SDS011;23057;48.554;14.454;2023-08-01T01:24:04;5.38;;;2.30;;
37164;SDS011;23057;48.554;14.454;2023-08-01T01:26:40;2.97;;;2.25;;
37164;SDS011;23057;48.554;14.454;2023-08-01T01:29:13;4.32;;;2.25;;
37164;SDS011;23057;48.554;14.454;2023-08-01T01:31:46;5.70;;;2.10;;
37164;SDS011;23057;48.554;14.454;2023-08-01T01:34:18;4.05;;;2.45;;
37164;SDS011;23057;48.554;14.454;2023-08-01T01:36:50;4.93;;;2.40;;
37164;SDS011;23057;48.554;14.454;2023-08-01T01:39:21;4.55;;;2.30;;
37164;SDS011;23057;48.554;14.454;2023-08-01T01:41:51;4.72;;;1.95;;
37164;SDS011;23057;48.554;14.454;2023-08-01T01:44:22;5.72;;;2.10;;
37164;SDS011;23057;48.554;14.454;2023-08-01T01:46:53;4.05;;;2.00;;
37164;SDS011;23057;48.554;14.454;2023-08-01T01:49:24;4.22;;;2.20;;
37164;SDS011;23057;48.554;14.454;2023-08-01T01:51:56;3.80;;;2.15;;
37164;SDS011;23057;48.554;14.454;2023-08-01T01:54:26;6.38;;;2.40;;
37164;SDS011;23057;48.554;14.454;2023-08-01T01:56:57;3.08;;;2.13;;
37164;SDS011;23057;48.554;14.454;2023-08-01T01:59:28;4.40;;;2.53;;
37164;SDS011;23057;48.554;14.454;2023-08-01T02:01:59;3.78;;;2.40;;
37164;SDS011;23057;48.554;14.454;2023-08-01T02:04:30;2.92;;;2.20;;
37164;SDS011;23057;48.554;14.454;2023-08-01T02:07:01;4.72;;;2.70;;
37164;SDS011;23057;48.554;14.454;2023-08-01T02:09:33;4.90;;;2.40;;
37164;SDS011;23057;48.554;14.454;2023-08-01T02:12:03;3.10;;;2.08;;
37164;SDS011;23057;48.554;14.454;2023-08-01T02:14:35;4.07;;;2.65;;
37164;SDS011;23057;48.554;14.454;2023-08-01T02:17:06;3.13;;;1.92;;
37164;SDS011;23057;48.554;14.454;2023-08-01T02:19:37;5.53;;;2.33;;
37164;SDS011;23057;48.554;14.454;2023-08-01T02:22:08;5.20;;;3.58;;
37164;SDS011;23057;48.554;14.454;2023-08-01T02:24:39;3.70;;;2.78;;
37164;SDS011;23057;48.554;14.454;2023-08-01T02:27:10;5.35;;;2.47;;
37164;SDS011;23057;48.554;14.454;2023-08-01T02:29:41;4.57;;;2.55;;
37164;SDS011;23057;48.554;14.454;2023-08-01T02:32:12;6.82;;;2.83;;
37164;SDS011;23057;48.554;14.454;2023-08-01T02:34:43;5.68;;;2.38;;
37164;SDS011;23057;48.554;14.454;2023-08-01T02:37:14;6.45;;;2.60;;
37164;SDS011;23057;48.554;14.454;2023-08-01T02:39:44;3.67;;;2.08;;
37164;SDS011;23057;48.554;14.454;2023-08-01T02:42:15;5.57;;;2.40;;
37164;SDS011;23057;48.554;14.454;2023-08-01T02:44:46;4.40;;;2.65;;
37164;SDS011;23057;48.554;14.454;2023-08-01T02:47:17;5.43;;;2.83;;
37164;SDS011;23057;48.554;14.454;2023-08-01T02:49:47;4.35;;;2.55;;
37164;SDS011;23057;48.554;14.454;2023-08-01T02:52:18;4.63;;;2.38;;
37164;SDS011;23057;48.554;14.454;2023-08-01T02:54:49;5.93;;;2.90;;
37164;SDS011;23057;48.554;14.454;2023-08-01T02:57:20;7.40;;;2.80;;
37164;SDS011;23057;48.554;14.454;2023-08-01T02:59:51;4.47;;;2.30;;
37164;SDS011;23057;48.554;14.454;2023-08-01T03:02:21;5.95;;;2.75;;
37164;SDS011;23057;48.554;14.454;2023-08-01T03:04:52;5.88;;;3.20;;
37164;SDS011;23057;48.554;14.454;2023-08-01T03:07:23;5.38;;;2.90;;
37164;SDS011;23057;48.554;14.454;2023-08-01T03:09:54;5.35;;;2.75;;
37164;SDS011;23057;48.554;14.454;2023-08-01T03:12:25;6.38;;;2.85;;
37164;SDS011;23057;48.554;14.454;2023-08-01T03:14:56;5.57;;;2.70;;
37164;SDS011;23057;48.554;14.454;2023-08-01T03:17:27;6.18;;;2.67;;
37164;SDS011;23057;48.554;14.454;2023-08-01T03:19:58;7.78;;;2.35;;
37164;SDS011;23057;48.554;14.454;2023-08-01T03:22:29;3.75;;;2.40;;
37164;SDS011;23057;48.554;14.454;2023-08-01T03:24:59;4.72;;;3.00;;
37164;SDS011;23057;48.554;14.454;2023-08-01T03:27:30;6.55;;;3.15;;
37164;SDS011;23057;48.554;14.454;2023-08-01T03:30:02;5.70;;;3.13;;
37164;SDS011;23057;48.554;14.454;2023-08-01T03:32:35;5.07;;;3.00;;
37164;SDS011;23057;48.554;14.454;2023-08-01T03:35:07;5.60;;;3.83;;
37164;SDS011;23057;48.554;14.454;2023-08-01T03:37:38;6.30;;;3.50;;
37164;SDS011;23057;48.554;14.454;2023-08-01T03:40:09;3.92;;;2.78;;
37164;SDS011;23057;48.554;14.454;2023-08-01T03:42:40;7.00;;;3.08;;
37164;SDS011;23057;48.554;14.454;2023-08-01T03:45:11;3.92;;;2.78;;
37164;SDS011;23057;48.554;14.454;2023-08-01T03:47:42;5.03;;;3.05;;
37164;SDS011;23057;48.554;14.454;2023-08-01T03:50:13;5.80;;;3.22;;
37164;SDS011;23057;48.554;14.454;2023-08-01T03:52:44;4.45;;;3.10;;
37164;SDS011;23057;48.554;14.454;2023-08-01T03:55:15;8.00;;;3.17;;
37164;SDS011;23057;48.554;14.454;2023-08-01T03:57:46;4.97;;;3.33;;
37164;SDS011;23057;48.554;14.454;2023-08-01T04:00:17;4.75;;;3.03;;
37164;SDS011;23057;48.554;14.454;2023-08-01T04:02:48;5.65;;;3.35;;
37164;SDS011;23057;48.554;14.454;2023-08-01T04:05:19;5.05;;;3.40;;
37164;SDS011;23057;48.554;14.454;2023-08-01T04:07:49;11.10;;;3.80;;
37164;SDS011;23057;48.554;14.454;2023-08-01T04:10:21;6.22;;;3.75;;
37164;SDS011;23057;48.554;14.454;2023-08-01T04:12:52;10.00;;;3.97;;
37164;SDS011;23057;48.554;14.454;2023-08-01T04:15:23;7.03;;;3.13;;
37164;SDS011;23057;48.554;14.454;2023-08-01T04:17:54;7.10;;;3.85;;
37164;SDS011;23057;48.554;14.454;2023-08-01T04:20:25;6.20;;;3.33;;
37164;SDS011;23057;48.554;14.454;2023-08-01T04:22:55;6.03;;;3.70;;
37164;SDS011;23057;48.554;14.454;2023-08-01T04:25:26;7.05;;;3.47;;
37164;SDS011;23057;48.554;14.454;2023-08-01T04:27:57;4.88;;;3.17;;
37164;SDS011;23057;48.554;14.454;2023-08-01T04:30:28;7.45;;;3.67;;
37164;SDS011;23057;48.554;14.454;2023-08-01T04:32:59;5.68;;;3.70;;
37164;SDS011;23057;48.554;14.454;2023-08-01T04:35:30;4.15;;;3.00;;
37164;SDS011;23057;48.554;14.454;2023-08-01T04:38:01;11.23;;;4.22;;
37164;SDS011;23057;48.554;14.454;2023-08-01T04:40:32;5.63;;;3.10;;
37164;SDS011;23057;48.554;14.454;2023-08-01T04:43:02;7.93;;;3.53;;
37164;SDS011;23057;48.554;14.454;2023-08-01T04:45:33;5.15;;;2.97;;
37164;SDS011;23057;48.554;14.454;2023-08-01T04:48:04;5.90;;;3.50;;
37164;SDS011;23057;48.554;14.454;2023-08-01T04:50:35;4.65;;;3.15;;
37164;SDS011;23057;48.554;14.454;2023-08-01T04:53:06;7.45;;;3.22;;
37164;SDS011;23057;48.554;14.454;2023-08-01T04:55:37;6.10;;;3.10;;
37164;SDS011;23057;48.554;14.454;2023-08-01T04:58:08;4.55;;;3.00;;
37164;SDS011;23057;48.554;14.454;2023-08-01T05:00:40;4.55;;;2.50;;
37164;SDS011;23057;48.554;14.454;2023-08-01T05:03:12;5.05;;;2.72;;
37164;SDS011;23057;48.554;14.454;2023-08-01T05:05:43;5.50;;;2.85;;
37164;SDS011;23057;48.554;14.454;2023-08-01T05:08:14;6.85;;;2.88;;
37164;SDS011;23057;48.554;14.454;2023-08-01T05:10:45;5.43;;;2.70;;
37164;SDS011;23057;48.554;14.454;2023-08-01T05:13:16;15.07;;;3.33;;
37164;SDS011;23057;48.554;14.454;2023-08-01T05:15:46;6.18;;;2.90;;
37164;SDS011;23057;48.554;14.454;2023-08-01T05:18:17;6.43;;;3.08;;
37164;SDS011;23057;48.554;14.454;2023-08-01T05:20:49;5.60;;;3.17;;
37164;SDS011;23057;48.554;14.454;2023-08-01T05:23:19;6.68;;;3.65;;
37164;SDS011;23057;48.554;14.454;2023-08-01T05:25:50;8.73;;;3.72;;
37164;SDS011;23057;48.554;14.454;2023-08-01T05:28:21;6.43;;;3.53;;
37164;SDS011;23057;48.554;14.454;2023-08-01T05:30:53;5.03;;;3.10;;
37164;SDS011;23057;48.554;14.454;2023-08-01T05:33:24;7.57;;;3.33;;
37164;SDS011;23057;48.554;14.454;2023-08-01T05:35:56;6.07;;;2.85;;
37164;SDS011;23057;48.554;14.454;2023-08-01T05:38:28;7.00;;;3.15;;
37164;SDS011;23057;48.554;14.454;2023-08-01T05:40:59;6.45;;;3.58;;
37164;SDS011;23057;48.554;14.454;2023-08-01T05:43:30;7.28;;;2.95;;
37164;SDS011;23057;48.554;14.454;2023-08-01T05:46:01;5.82;;;2.72;;
37164;SDS011;23057;48.554;14.454;2023-08-01T05:48:32;5.93;;;2.97;;
37164;SDS011;23057;48.554;14.454;2023-08-01T05:51:02;6.65;;;3.30;;
37164;SDS011;23057;48.554;14.454;2023-08-01T05:53:33;7.63;;;3.10;;
37164;SDS011;23057;48.554;14.454;2023-08-01T05:56:04;6.20;;;3.15;;
37164;SDS011;23057;48.554;14.454;2023-08-01T05:58:35;5.05;;;3.03;;
37164;SDS011;23057;48.554;14.454;2023-08-01T06:01:06;5.88;;;2.45;;
37164;SDS011;23057;48.554;14.454;2023-08-01T06:03:39;4.63;;;2.72;;
37164;SDS011;23057;48.554;14.454;2023-08-01T06:06:09;6.47;;;3.03;;
37164;SDS011;23057;48.554;14.454;2023-08-01T06:08:40;5.20;;;2.30;;
37164;SDS011;23057;48.554;14.454;2023-08-01T06:11:11;5.32;;;2.88;;
37164;SDS011;23057;48.554;14.454;2023-08-01T06:13:42;4.93;;;2.63;;
37164;SDS011;23057;48.554;14.454;2023-08-01T06:16:13;4.80;;;2.55;;
37164;SDS011;23057;48.554;14.454;2023-08-01T06:18:43;8.07;;;3.35;;
37164;SDS011;23057;48.554;14.454;2023-08-01T06:21:14;6.05;;;2.58;;
37164;SDS011;23057;48.554;14.454;2023-08-01T06:23:45;4.53;;;2.75;;
37164;SDS011;23057;48.554;14.454;2023-08-01T06:26:16;8.30;;;3.25;;
37164;SDS011;23057;48.554;14.454;2023-08-01T06:28:47;5.80;;;3.22;;
37164;SDS011;23057;48.554;14.454;2023-08-01T06:31:18;6.88;;;3.88;;
37164;SDS011;23057;48.554;14.454;2023-08-01T06:33:50;6.68;;;3.38;;
37164;SDS011;23057;48.554;14.454;2023-08-01T06:36:21;6.88;;;3.90;;
37164;SDS011;23057;48.554;14.454;2023-08-01T06:38:52;4.80;;;3.08;;
37164;SDS011;23057;48.554;14.454;2023-08-01T06:41:23;5.15;;;2.90;;
37164;SDS011;23057;48.554;14.454;2023-08-01T06:43:53;6.70;;;3.40;;
37164;SDS011;23057;48.554;14.454;2023-08-01T06:46:24;4.65;;;3.45;;
37164;SDS011;23057;48.554;14.454;2023-08-01T06:48:55;7.18;;;3.67;;
37164;SDS011;23057;48.554;14.454;2023-08-01T06:51:26;7.03;;;3.33;;
37164;SDS011;23057;48.554;14.454;2023-08-01T06:53:57;6.57;;;3.03;;
37164;SDS011;23057;48.554;14.454;2023-08-01T06:56:28;7.70;;;3.58;;
37164;SDS011;23057;48.554;14.454;2023-08-01T06:58:59;4.45;;;2.88;;
37164;SDS011;23057;48.554;14.454;2023-08-01T07:01:29;6.40;;;3.45;;
37164;SDS011;23057;48.554;14.454;2023-08-01T07:04:03;5.20;;;2.97;;
37164;SDS011;23057;48.554;14.454;2023-08-01T07:06:33;6.10;;;2.97;;
37164;SDS011;23057;48.554;14.454;2023-08-01T07:09:04;6.82;;;3.88;;
37164;SDS011;23057;48.554;14.454;2023-08-01T07:11:36;7.88;;;3.10;;
37164;SDS011;23057;48.554;14.454;2023-08-01T07:14:07;4.45;;;2.80;;
37164;SDS011;23057;48.554;14.454;2023-08-01T07:16:38;5.82;;;2.90;;
37164;SDS011;23057;48.554;14.454;2023-08-01T07:19:08;6.28;;;2.63;;
37164;SDS011;23057;48.554;14.454;2023-08-01T07:21:40;6.65;;;3.10;;
37164;SDS011;23057;48.554;14.454;2023-08-01T07:24:10;6.68;;;3.00;;
37164;SDS011;23057;48.554;14.454;2023-08-01T07:26:41;4.78;;;2.80;;
37164;SDS011;23057;48.554;14.454;2023-08-01T07:29:12;7.03;;;3.35;;
37164;SDS011;23057;48.554;14.454;2023-08-01T07:31:45;8.52;;;3.63;;
37164;SDS011;23057;48.554;14.454;2023-08-01T07:34:16;5.97;;;3.20;;
37164;SDS011;23057;48.554;14.454;2023-08-01T07:36:47;7.85;;;3.50;;
37164;SDS011;23057;48.554;14.454;2023-08-01T07:39:19;7.65;;;3.30;;
37164;SDS011;23057;48.554;14.454;2023-08-01T07:41:49;5.75;;;3.20;;
37164;SDS011;23057;48.554;14.454;2023-08-01T07:44:20;5.68;;;3.67;;
37164;SDS011;23057;48.554;14.454;2023-08-01T07:46:51;5.10;;;3.13;;
37164;SDS011;23057;48.554;14.454;2023-08-01T07:49:22;6.13;;;3.75;;
37164;SDS011;23057;48.554;14.454;2023-08-01T07:51:53;7.03;;;3.47;;
37164;SDS011;23057;48.554;14.454;2023-08-01T07:54:24;6.28;;;3.35;;
37164;SDS011;23057;48.554;14.454;2023-08-01T07:56:54;6.63;;;3.20;;
37164;SDS011;23057;48.554;14.454;2023-08-01T07:59:25;7.13;;;3.13;;
37164;SDS011;23057;48.554;14.454;2023-08-01T08:01:56;6.53;;;3.45;;
37164;SDS011;23057;48.554;14.454;2023-08-01T08:04:27;5.82;;;3.28;;
37164;SDS011;23057;48.554;14.454;2023-08-01T08:06:58;6.18;;;3.30;;
37164;SDS011;23057;48.554;14.454;2023-08-01T08:09:30;7.05;;;3.72;;
37164;SDS011;23057;48.554;14.454;2023-08-01T08:12:00;6.75;;;3.65;;
37164;SDS011;23057;48.554;14.454;2023-08-01T08:14:31;6.15;;;3.60;;
37164;SDS011;23057;48.554;14.454;2023-08-01T08:17:02;6.30;;;4.22;;
37164;SDS011;23057;48.554;14.454;2023-08-01T08:19:33;6.28;;;3.85;;
37164;SDS011;23057;48.554;14.454;2023-08-01T08:22:04;6.70;;;4.13;;
37164;SDS011;23057;48.554;14.454;2023-08-01T08:24:35;7.20;;;4.25;;
37164;SDS011;23057;48.554;14.454;2023-08-01T08:27:05;6.53;;;4.18;;
37164;SDS011;23057;48.554;14.454;2023-08-01T08:29:37;7.13;;;4.53;;
37164;SDS011;23057;48.554;14.454;2023-08-01T08:32:08;7.00;;;5.28;;
37164;SDS011;23057;48.554;14.454;2023-08-01T08:34:38;8.80;;;5.40;;
37164;SDS011;23057;48.554;14.454;2023-08-01T08:37:09;8.48;;;5.80;;
37164;SDS011;23057;48.554;14.454;2023-08-01T08:39:40;7.43;;;5.78;;
37164;SDS011;23057;48.554;14.454;2023-08-01T08:42:11;9.82;;;6.28;;
37164;SDS011;23057;48.554;14.454;2023-08-01T08:44:42;8.23;;;6.18;;
37164;SDS011;23057;48.554;14.454;2023-08-01T08:47:14;10.38;;;6.00;;
37164;SDS011;23057;48.554;14.454;2023-08-01T08:49:49;8.77;;;5.97;;
37164;SDS011;23057;48.554;14.454;2023-08-01T08:52:20;9.05;;;6.95;;
37164;SDS011;23057;48.554;14.454;2023-08-01T08:54:51;10.30;;;6.18;;
37164;SDS011;23057;48.554;14.454;2023-08-01T08:57:23;9.90;;;6.65;;
37164;SDS011;23057;48.554;14.454;2023-08-01T08:59:55;7.20;;;5.57;;
37164;SDS011;23057;48.554;14.454;2023-08-01T09:02:27;7.70;;;6.50;;
37164;SDS011;23057;48.554;14.454;2023-08-01T09:04:58;7.35;;;5.68;;
37164;SDS011;23057;48.554;14.454;2023-08-01T09:07:29;7.90;;;5.80;;
37164;SDS011;23057;48.554;14.454;2023-08-01T09:10:08;8.82;;;6.15;;
37164;SDS011;23057;48.554;14.454;2023-08-01T09:12:39;7.68;;;5.55;;
37164;SDS011;23057;48.554;14.454;2023-08-01T09:15:10;6.68;;;5.32;;
37164;SDS011;23057;48.554;14.454;2023-08-01T09:17:55;7.30;;;5.20;;
37164;SDS011;23057;48.554;14.454;2023-08-01T09:20:30;6.38;;;4.78;;
37164;SDS011;23057;48.554;14.454;2023-08-01T09:23:19;6.20;;;4.85;;
37164;SDS011;23057;48.554;14.454;2023-08-01T09:25:50;6.93;;;4.90;;
37164;SDS011;23057;48.554;14.454;2023-08-01T09:28:24;6.68;;;3.95;;
37164;SDS011;23057;48.554;14.454;2023-08-01T09:30:56;8.43;;;5.00;;
37164;SDS011;23057;48.554;14.454;2023-08-01T09:33:37;5.95;;;4.30;;
37164;SDS011;23057;48.554;14.454;2023-08-01T09:36:11;6.13;;;4.57;;
37164;SDS011;23057;48.554;14.454;2023-08-01T09:38:57;4.88;;;3.60;;
37164;SDS011;23057;48.554;14.454;2023-08-01T09:41:34;6.82;;;3.97;;
37164;SDS011;23057;48.554;14.454;2023-08-01T09:44:05;5.35;;;3.53;;
37164;SDS011;23057;48.554;14.454;2023-08-01T09:46:36;6.47;;;3.70;;
37164;SDS011;23057;48.554;14.454;2023-08-01T09:49:09;8.13;;;3.92;;
37164;SDS011;23057;48.554;14.454;2023-08-01T09:51:48;7.65;;;3.83;;
37164;SDS011;23057;48.554;14.454;2023-08-01T09:54:21;5.20;;;3.22;;
37164;SDS011;23057;48.554;14.454;2023-08-01T09:56:52;5.43;;;3.20;;
37164;SDS011;23057;48.554;14.454;2023-08-01T09:59:25;5.35;;;3.20;;
37164;SDS011;23057;48.554;14.454;2023-08-01T10:01:56;5.80;;;3.55;;
37164;SDS011;23057;48.554;14.454;2023-08-01T10:04:31;7.25;;;3.55;;
37164;SDS011;23057;48.554;14.454;2023-08-01T10:07:07;6.40;;;3.50;;
37164;SDS011;23057;48.554;14.454;2023-08-01T10:09:44;5.07;;;3.17;;
37164;SDS011;23057;48.554;14.454;2023-08-01T10:12:18;6.40;;;3.38;;
37164;SDS011;23057;48.554;14.454;2023-08-01T10:14:49;5.50;;;2.92;;
37164;SDS011;23057;48.554;14.454;2023-08-01T10:17:22;5.53;;;2.92;;
37164;SDS011;23057;48.554;14.454;2023-08-01T10:19:56;4.95;;;3.50;;
37164;SDS011;23057;48.554;14.454;2023-08-01T10:22:27;5.75;;;3.35;;
37164;SDS011;23057;48.554;14.454;2023-08-01T10:24:59;4.80;;;3.10;;
37164;SDS011;23057;48.554;14.454;2023-08-01T10:27:31;7.47;;;3.47;;
37164;SDS011;23057;48.554;14.454;2023-08-01T10:30:04;7.78;;;3.75;;
37164;SDS011;23057;48.554;14.454;2023-08-01T10:32:39;5.35;;;3.00;;
37164;SDS011;23057;48.554;14.454;2023-08-01T10:35:11;6.38;;;3.30;;
37164;SDS011;23057;48.554;14.454;2023-08-01T10:37:44;6.40;;;3.00;;
37164;SDS011;23057;48.554;14.454;2023-08-01T10:40:19;5.75;;;3.45;;
37164;SDS011;23057;48.554;14.454;2023-08-01T10:42:49;7.20;;;3.63;;
37164;SDS011;23057;48.554;14.454;2023-08-01T10:45:24;7.20;;;3.67;;
37164;SDS011;23057;48.554;14.454;2023-08-01T10:48:06;4.50;;;3.35;;
37164;SDS011;23057;48.554;14.454;2023-08-01T10:50:40;5.55;;;3.58;;
37164;SDS011;23057;48.554;14.454;2023-08-01T10:53:11;5.75;;;3.08;;
37164;SDS011;23057;48.554;14.454;2023-08-01T10:55:43;6.05;;;3.30;;
37164;SDS011;23057;48.554;14.454;2023-08-01T10:58:17;6.43;;;3.47;;
37164;SDS011;23057;48.554;14.454;2023-08-01T11:00:56;6.57;;;3.28;;
37164;SDS011;23057;48.554;14.454;2023-08-01T11:03:38;5.03;;;2.72;;
37164;SDS011;23057;48.554;14.454;2023-08-01T11:06:11;5.10;;;3.30;;
37164;SDS011;23057;48.554;14.454;2023-08-01T11:08:42;7.65;;;3.50;;
37164;SDS011;23057;48.554;14.454;2023-08-01T11:11:14;5.50;;;3.35;;
37164;SDS011;23057;48.554;14.454;2023-08-01T11:13:54;5.60;;;3.40;;
37164;SDS011;23057;48.554;14.454;2023-08-01T11:16:26;5.70;;;4.43;;
37164;SDS011;23057;48.554;14.454;2023-08-01T11:18:58;7.03;;;3.83;;
37164;SDS011;23057;48.554;14.454;2023-08-01T11:21:29;7.40;;;5.18;;
37164;SDS011;23057;48.554;14.454;2023-08-01T11:23:59;6.75;;;4.97;;
37164;SDS011;23057;48.554;14.454;2023-08-01T11:26:41;7.57;;;5.00;;
37164;SDS011;23057;48.554;14.454;2023-08-01T11:29:19;7.57;;;5.65;;
37164;SDS011;23057;48.554;14.454;2023-08-01T11:31:52;7.85;;;5.75;;
37164;SDS011;23057;48.554;14.454;2023-08-01T11:34:29;12.35;;;6.13;;
37164;SDS011;23057;48.554;14.454;2023-08-01T11:37:14;8.35;;;5.28;;
37164;SDS011;23057;48.554;14.454;2023-08-01T11:39:49;8.77;;;6.72;;
37164;SDS011;23057;48.554;14.454;2023-08-01T11:42:21;9.02;;;6.20;;
37164;SDS011;23057;48.554;14.454;2023-08-01T11:44:52;14.23;;;9.77;;
37164;SDS011;23057;48.554;14.454;2023-08-01T11:47:23;11.60;;;8.43;;
37164;SDS011;23057;48.554;14.454;2023-08-01T11:49:53;10.32;;;8.02;;
37164;SDS011;23057;48.554;14.454;2023-08-01T11:52:27;13.38;;;8.50;;
37164;SDS011;23057;48.554;14.454;2023-08-01T11:54:59;10.48;;;7.90;;
37164;SDS011;23057;48.554;14.454;2023-08-01T11:57:30;12.18;;;9.63;;
37164;SDS011;23057;48.554;14.454;2023-08-01T12:00:01;12.63;;;8.70;;
37164;SDS011;23057;48.554;14.454;2023-08-01T12:02:32;12.18;;;8.57;;
37164;SDS011;23057;48.554;14.454;2023-08-01T12:05:03;11.55;;;8.20;;
37164;SDS011;23057;48.554;14.454;2023-08-01T12:07:35;12.45;;;9.02;;
37164;SDS011;23057;48.554;14.454;2023-08-01T12:10:06;13.02;;;8.27;;
37164;SDS011;23057;48.554;14.454;2023-08-01T12:12:43;14.02;;;9.75;;
37164;SDS011;23057;48.554;14.454;2023-08-01T12:15:20;13.88;;;8.30;;
37164;SDS011;23057;48.554;14.454;2023-08-01T12:17:51;14.40;;;8.32;;
37164;SDS011;23057;48.554;14.454;2023-08-01T12:20:22;12.23;;;7.40;;
37164;SDS011;23057;48.554;14.454;2023-08-01T12:22:53;11.23;;;6.90;;
37164;SDS011;23057;48.554;14.454;2023-08-01T12:25:24;7.97;;;5.13;;
37164;SDS011;23057;48.554;14.454;2023-08-01T12:27:55;8.75;;;5.43;;
37164;SDS011;23057;48.554;14.454;2023-08-01T12:30:26;8.23;;;5.55;;
37164;SDS011;23057;48.554;14.454;2023-08-01T12:32:57;7.43;;;4.40;;
37164;SDS011;23057;48.554;14.454;2023-08-01T12:35:28;8.20;;;4.53;;
37164;SDS011;23057;48.554;14.454;2023-08-01T12:37:58;8.27;;;5.63;;
37164;SDS011;23057;48.554;14.454;2023-08-01T12:40:29;10.45;;;6.47;;
37164;SDS011;23057;48.554;14.454;2023-08-01T12:43:00;12.02;;;6.72;;
37164;SDS011;23057;48.554;14.454;2023-08-01T12:45:31;9.10;;;6.55;;
37164;SDS011;23057;48.554;14.454;2023-08-01T12:48:03;7.13;;;5.72;;
37164;SDS011;23057;48.554;14.454;2023-08-01T12:50:34;8.35;;;6.25;;
37164;SDS011;23057;48.554;14.454;2023-08-01T12:53:05;8.70;;;5.72;;
37164;SDS011;23057;48.554;14.454;2023-08-01T12:55:35;8.80;;;6.18;;
37164;SDS011;23057;48.554;14.454;2023-08-01T12:58:06;8.35;;;6.25;;
37164;SDS011;23057;48.554;14.454;2023-08-01T13:00:37;10.32;;;7.05;;
37164;SDS011;23057;48.554;14.454;2023-08-01T13:03:11;9.52;;;6.22;;
37164;SDS011;23057;48.554;14.454;2023-08-01T13:05:42;9.18;;;6.22;;
37164;SDS011;23057;48.554;14.454;2023-08-01T13:08:13;9.85;;;6.57;;
37164;SDS011;23057;48.554;14.454;2023-08-01T13:10:44;10.38;;;6.97;;
37164;SDS011;23057;48.554;14.454;2023-08-01T13:13:16;10.52;;;6.72;;
37164;SDS011;23057;48.554;14.454;2023-08-01T13:15:47;9.57;;;6.30;;
37164;SDS011;23057;48.554;14.454;2023-08-01T13:18:18;9.45;;;6.70;;
37164;SDS011;23057;48.554;14.454;2023-08-01T13:20:49;10.73;;;7.28;;
37164;SDS011;23057;48.554;14.454;2023-08-01T13:23:20;9.20;;;7.00;;
37164;SDS011;23057;48.554;14.454;2023-08-01T13:25:50;16.85;;;7.82;;
37164;SDS011;23057;48.554;14.454;2023-08-01T13:28:21;10.13;;;7.43;;
37164;SDS011;23057;48.554;14.454;2023-08-01T13:30:52;10.93;;;7.63;;
37164;SDS011;23057;48.554;14.454;2023-08-01T13:33:23;9.90;;;6.72;;
37164;SDS011;23057;48.554;14.454;2023-08-01T13:35:54;10.77;;;6.13;;
37164;SDS011;23057;48.554;14.454;2023-08-01T13:38:29;9.85;;;6.20;;
37164;SDS011;23057;48.554;14.454;2023-08-01T13:41:00;10.25;;;6.47;;
37164;SDS011;23057;48.554;14.454;2023-08-01T13:43:31;10.82;;;6.55;;
37164;SDS011;23057;48.554;14.454;2023-08-01T13:49:02;10.77;;;7.38;;
37164;SDS011;23057;48.554;14.454;2023-08-01T13:51:33;9.55;;;6.60;;
37164;SDS011;23057;48.554;14.454;2023-08-01T13:54:04;13.45;;;7.50;;
37164;SDS011;23057;48.554;14.454;2023-08-01T13:56:35;8.88;;;6.20;;
37164;SDS011;23057;48.554;14.454;2023-08-01T13:59:06;11.05;;;6.95;;
37164;SDS011;23057;48.554;14.454;2023-08-01T14:01:37;8.45;;;5.50;;
37164;SDS011;23057;48.554;14.454;2023-08-01T14:04:08;9.10;;;5.93;;
37164;SDS011;23057;48.554;14.454;2023-08-01T14:06:39;10.68;;;5.20;;
37164;SDS011;23057;48.554;14.454;2023-08-01T14:09:11;6.75;;;4.38;;
37164;SDS011;23057;48.554;14.454;2023-08-01T14:11:42;7.38;;;4.03;;
37164;SDS011;23057;48.554;14.454;2023-08-01T14:14:13;6.13;;;4.03;;
37164;SDS011;23057;48.554;14.454;2023-08-01T14:16:44;7.40;;;4.57;;
37164;SDS011;23057;48.554;14.454;2023-08-01T14:19:15;5.78;;;3.65;;
37164;SDS011;23057;48.554;14.454;2023-08-01T14:21:45;5.68;;;3.80;;
37164;SDS011;23057;48.554;14.454;2023-08-01T14:24:16;6.22;;;3.63;;
37164;SDS011;23057;48.554;14.454;2023-08-01T14:26:47;6.43;;;3.20;;
37164;SDS011;23057;48.554;14.454;2023-08-01T14:29:18;5.95;;;3.28;;
37164;SDS011;23057;48.554;14.454;2023-08-01T14:31:52;5.07;;;2.97;;
37164;SDS011;23057;48.554;14.454;2023-08-01T14:34:23;5.05;;;3.10;;
37164;SDS011;23057;48.554;14.454;2023-08-01T14:36:54;4.25;;;2.42;;
37164;SDS011;23057;48.554;14.454;2023-08-01T14:39:24;4.82;;;3.05;;
37164;SDS011;23057;48.554;14.454;2023-08-01T14:41:55;4.53;;;2.72;;
37164;SDS011;23057;48.554;14.454;2023-08-01T14:44:26;5.50;;;3.33;;
37164;SDS011;23057;48.554;14.454;2023-08-01T14:46:57;4.72;;;2.75;;
37164;SDS011;23057;48.554;14.454;2023-08-01T14:49:28;4.22;;;2.40;;
37164;SDS011;23057;48.554;14.454;2023-08-01T14:51:59;6.25;;;3.13;;
37164;SDS011;23057;48.554;14.454;2023-08-01T14:54:30;3.50;;;2.60;;
37164;SDS011;23057;48.554;14.454;2023-08-01T14:57:01;3.95;;;2.47;;
37164;SDS011;23057;48.554;14.454;2023-08-01T14:59:32;3.90;;;2.17;;
37164;SDS011;23057;48.554;14.454;2023-08-01T15:02:03;5.63;;;2.60;;